sensor_id;sensor_type;location;lat;lon;timestamp;pressure;altitude;pressure_sealevel;temperature;humidity
79481;BME280;68944;48.262;14.208;2023-07-29T00:00:46;97955.47;;;21.45;61.50
79481;BME280;68944;48.262;14.208;2023-07-29T00:03:11;97957.28;;;21.36;61.44
79481;BME280;68944;48.262;14.208;2023-07-29T00:05:37;97959.56;;;21.29;61.51
79481;BME280;68944;48.262;14.208;2023-07-29T00:08:03;97950.41;;;21.30;61.40
79481;BME280;68944;48.262;14.208;2023-07-29T00:10:31;97962.75;;;21.31;61.41
79481;BME280;68944;48.262;14.208;2023-07-29T00:12:57;97963.28;;;21.33;61.37
79481;BME280;68944;48.262;14.208;2023-07-29T00:15:23;97954.09;;;21.34;61.48
79481;BME280;68944;48.262;14.208;2023-07-29T00:17:48;97953.50;;;21.37;61.43
79481;BME280;68944;48.262;14.208;2023-07-29T00:20:14;97945.81;;;21.44;61.13
79481;BME280;68944;48.262;14.208;2023-07-29T00:22:40;97953.69;;;21.41;61.34
79481;BME280;68944;48.262;14.208;2023-07-29T00:25:06;97955.22;;;21.33;61.55
79481;BME280;68944;48.262;14.208;2023-07-29T00:27:31;97950.00;;;21.22;61.81
79481;BME280;68944;48.262;14.208;2023-07-29T00:29:57;97955.59;;;21.26;61.68
79481;BME280;68944;48.262;14.208;2023-07-29T00:32:22;97949.59;;;21.15;61.90
79481;BME280;68944;48.262;14.208;2023-07-29T00:34:48;97952.59;;;21.13;62.06
79481;BME280;68944;48.262;14.208;2023-07-29T00:37:13;97957.19;;;21.13;62.70
79481;BME280;68944;48.262;14.208;2023-07-29T00:39:39;97945.03;;;21.16;62.38
79481;BME280;68944;48.262;14.208;2023-07-29T00:42:05;97946.41;;;21.27;62.25
79481;BME280;68944;48.262;14.208;2023-07-29T00:44:30;97948.22;;;21.32;61.82
79481;BME280;68944;48.262;14.208;2023-07-29T00:47:02;97945.41;;;21.37;61.64
79481;BME280;68944;48.262;14.208;2023-07-29T00:49:28;97950.09;;;21.17;62.33
79481;BME280;68944;48.262;14.208;2023-07-29T00:51:54;97952.41;;;21.24;62.12
79481;BME280;68944;48.262;14.208;2023-07-29T00:54:20;97956.38;;;21.26;62.03
79481;BME280;68944;48.262;14.208;2023-07-29T00:56:45;97950.19;;;21.26;61.95
79481;BME280;68944;48.262;14.208;2023-07-29T00:59:11;97940.22;;;21.26;61.61
79481;BME280;68944;48.262;14.208;2023-07-29T01:04:28;97968.47;;;21.15;62.34
79481;BME280;68944;48.262;14.208;2023-07-29T01:07:02;97972.25;;;21.14;62.37
79481;BME280;68944;48.262;14.208;2023-07-29T01:10:10;97969.56;;;21.14;62.31
79481;BME280;68944;48.262;14.208;2023-07-29T01:15:22;97945.22;;;21.19;62.33
79481;BME280;68944;48.262;14.208;2023-07-29T01:17:54;97945.63;;;21.26;62.14
79481;BME280;68944;48.262;14.208;2023-07-29T01:20:21;97960.88;;;21.31;62.09
79481;BME280;68944;48.262;14.208;2023-07-29T01:22:48;97949.28;;;21.31;62.14
79481;BME280;68944;48.262;14.208;2023-07-29T01:25:13;97954.41;;;21.32;62.05
79481;BME280;68944;48.262;14.208;2023-07-29T01:27:45;97957.00;;;21.23;62.35
79481;BME280;68944;48.262;14.208;2023-07-29T01:30:11;97958.38;;;21.07;62.79
79481;BME280;68944;48.262;14.208;2023-07-29T01:37:55;97952.56;;;20.85;63.77
79481;BME280;68944;48.262;14.208;2023-07-29T01:40:26;97947.66;;;20.87;63.99
79481;BME280;68944;48.262;14.208;2023-07-29T01:42:52;97939.56;;;20.73;64.43
79481;BME280;68944;48.262;14.208;2023-07-29T01:45:18;97937.78;;;20.83;64.25
79481;BME280;68944;48.262;14.208;2023-07-29T01:47:44;97934.00;;;20.84;64.27
79481;BME280;68944;48.262;14.208;2023-07-29T01:50:09;97938.97;;;20.76;64.56
79481;BME280;68944;48.262;14.208;2023-07-29T01:52:35;97945.13;;;20.63;64.83
79481;BME280;68944;48.262;14.208;2023-07-29T01:55:01;97939.41;;;20.50;65.50
79481;BME280;68944;48.262;14.208;2023-07-29T01:57:27;97941.19;;;20.74;64.78
79481;BME280;68944;48.262;14.208;2023-07-29T01:59:53;97934.41;;;20.77;64.47
79481;BME280;68944;48.262;14.208;2023-07-29T02:02:18;97938.78;;;20.87;63.91
79481;BME280;68944;48.262;14.208;2023-07-29T02:04:44;97926.81;;;20.65;64.58
79481;BME280;68944;48.262;14.208;2023-07-29T02:07:10;97948.25;;;20.70;64.81
79481;BME280;68944;48.262;14.208;2023-07-29T02:09:36;97944.38;;;20.76;64.46
79481;BME280;68944;48.262;14.208;2023-07-29T02:12:01;97949.63;;;20.67;64.83
79481;BME280;68944;48.262;14.208;2023-07-29T02:14:36;97937.97;;;20.72;64.34
79481;BME280;68944;48.262;14.208;2023-07-29T02:17:01;97935.47;;;20.62;65.06
79481;BME280;68944;48.262;14.208;2023-07-29T02:19:27;97926.19;;;20.54;65.16
79481;BME280;68944;48.262;14.208;2023-07-29T02:21:53;97935.34;;;20.53;65.03
79481;BME280;68944;48.262;14.208;2023-07-29T02:24:18;97938.63;;;20.50;65.13
79481;BME280;68944;48.262;14.208;2023-07-29T02:26:44;97924.03;;;20.37;65.26
79481;BME280;68944;48.262;14.208;2023-07-29T02:29:09;97934.25;;;20.20;66.24
79481;BME280;68944;48.262;14.208;2023-07-29T02:31:35;97938.38;;;20.32;66.07
79481;BME280;68944;48.262;14.208;2023-07-29T02:34:02;97939.88;;;20.38;65.83
79481;BME280;68944;48.262;14.208;2023-07-29T02:36:28;97941.53;;;20.53;65.32
79481;BME280;68944;48.262;14.208;2023-07-29T02:38:53;97938.22;;;20.56;65.27
79481;BME280;68944;48.262;14.208;2023-07-29T02:41:19;97942.59;;;20.52;65.27
79481;BME280;68944;48.262;14.208;2023-07-29T02:43:48;97936.56;;;20.61;65.10
79481;BME280;68944;48.262;14.208;2023-07-29T02:46:14;97930.56;;;20.64;65.03
79481;BME280;68944;48.262;14.208;2023-07-29T02:48:39;97936.34;;;20.57;65.28
79481;BME280;68944;48.262;14.208;2023-07-29T02:51:05;97934.91;;;20.45;65.60
79481;BME280;68944;48.262;14.208;2023-07-29T02:53:30;97947.00;;;20.48;65.54
79481;BME280;68944;48.262;14.208;2023-07-29T02:55:56;97944.53;;;20.52;65.40
79481;BME280;68944;48.262;14.208;2023-07-29T02:58:21;97941.72;;;20.57;65.40
79481;BME280;68944;48.262;14.208;2023-07-29T03:00:47;97940.34;;;20.60;65.29
79481;BME280;68944;48.262;14.208;2023-07-29T03:03:14;97942.38;;;20.68;64.99
79481;BME280;68944;48.262;14.208;2023-07-29T03:05:39;97946.63;;;20.69;64.78
79481;BME280;68944;48.262;14.208;2023-07-29T03:08:05;97948.13;;;20.75;64.30
79481;BME280;68944;48.262;14.208;2023-07-29T03:10:30;97942.16;;;20.78;63.75
79481;BME280;68944;48.262;14.208;2023-07-29T03:12:56;97945.38;;;20.80;63.25
79481;BME280;68944;48.262;14.208;2023-07-29T03:15:25;97938.47;;;20.74;62.57
79481;BME280;68944;48.262;14.208;2023-07-29T03:17:51;97946.56;;;20.74;62.70
79481;BME280;68944;48.262;14.208;2023-07-29T03:20:17;97947.75;;;20.68;62.65
79481;BME280;68944;48.262;14.208;2023-07-29T03:22:44;97950.13;;;20.69;62.76
79481;BME280;68944;48.262;14.208;2023-07-29T03:25:10;97954.22;;;20.67;62.54
79481;BME280;68944;48.262;14.208;2023-07-29T03:27:35;97944.00;;;20.50;63.18
79481;BME280;68944;48.262;14.208;2023-07-29T03:30:03;97943.50;;;20.48;63.52
79481;BME280;68944;48.262;14.208;2023-07-29T03:32:29;97946.50;;;20.46;63.59
79481;BME280;68944;48.262;14.208;2023-07-29T03:34:54;97943.28;;;20.44;63.71
79481;BME280;68944;48.262;14.208;2023-07-29T03:37:20;97953.25;;;20.43;63.62
79481;BME280;68944;48.262;14.208;2023-07-29T03:39:47;97958.84;;;20.47;63.57
79481;BME280;68944;48.262;14.208;2023-07-29T03:42:12;97959.94;;;20.46;63.57
79481;BME280;68944;48.262;14.208;2023-07-29T03:44:38;97967.09;;;20.37;64.21
79481;BME280;68944;48.262;14.208;2023-07-29T03:47:05;97959.69;;;20.28;64.60
79481;BME280;68944;48.262;14.208;2023-07-29T03:49:32;97973.50;;;20.21;64.86
79481;BME280;68944;48.262;14.208;2023-07-29T03:51:57;97974.75;;;20.10;65.06
79481;BME280;68944;48.262;14.208;2023-07-29T03:54:23;97972.31;;;20.08;65.29
79481;BME280;68944;48.262;14.208;2023-07-29T03:56:48;97957.41;;;19.97;65.11
79481;BME280;68944;48.262;14.208;2023-07-29T03:59:14;97976.38;;;20.06;65.41
79481;BME280;68944;48.262;14.208;2023-07-29T04:01:39;97975.97;;;19.98;65.75
79481;BME280;68944;48.262;14.208;2023-07-29T04:04:05;97976.28;;;20.16;64.98
79481;BME280;68944;48.262;14.208;2023-07-29T04:06:30;97991.97;;;20.28;64.86
79481;BME280;68944;48.262;14.208;2023-07-29T04:08:58;97990.34;;;20.27;64.61
79481;BME280;68944;48.262;14.208;2023-07-29T04:11:23;97978.72;;;20.32;64.51
79481;BME280;68944;48.262;14.208;2023-07-29T04:13:49;97984.09;;;20.32;64.73
79481;BME280;68944;48.262;14.208;2023-07-29T04:16:14;97982.72;;;20.34;64.66
79481;BME280;68944;48.262;14.208;2023-07-29T04:18:41;97990.72;;;20.40;64.40
79481;BME280;68944;48.262;14.208;2023-07-29T04:21:06;97986.72;;;20.37;64.47
79481;BME280;68944;48.262;14.208;2023-07-29T04:23:32;97990.28;;;20.32;64.70
79481;BME280;68944;48.262;14.208;2023-07-29T04:25:57;97998.84;;;20.34;64.85
79481;BME280;68944;48.262;14.208;2023-07-29T04:28:23;97996.66;;;20.37;64.77
79481;BME280;68944;48.262;14.208;2023-07-29T04:30:49;97999.94;;;20.33;64.86
79481;BME280;68944;48.262;14.208;2023-07-29T04:33:15;97997.84;;;20.30;64.91
79481;BME280;68944;48.262;14.208;2023-07-29T04:35:40;98000.31;;;20.27;65.12
79481;BME280;68944;48.262;14.208;2023-07-29T04:38:06;98009.69;;;20.29;65.20
79481;BME280;68944;48.262;14.208;2023-07-29T04:40:35;98008.53;;;20.35;65.12
79481;BME280;68944;48.262;14.208;2023-07-29T04:43:00;98018.19;;;20.37;65.16
79481;BME280;68944;48.262;14.208;2023-07-29T04:45:30;98012.59;;;20.33;65.21
79481;BME280;68944;48.262;14.208;2023-07-29T04:47:56;98019.22;;;20.21;65.65
79481;BME280;68944;48.262;14.208;2023-07-29T04:50:22;98012.91;;;20.12;65.96
79481;BME280;68944;48.262;14.208;2023-07-29T04:52:47;98016.44;;;20.07;66.48
79481;BME280;68944;48.262;14.208;2023-07-29T04:55:13;98009.25;;;20.22;66.03
79481;BME280;68944;48.262;14.208;2023-07-29T04:57:38;98014.19;;;20.34;65.96
79481;BME280;68944;48.262;14.208;2023-07-29T05:00:04;98017.19;;;20.32;65.74
79481;BME280;68944;48.262;14.208;2023-07-29T05:02:30;98017.13;;;20.18;66.19
79481;BME280;68944;48.262;14.208;2023-07-29T05:04:55;98014.72;;;20.17;66.51
79481;BME280;68944;48.262;14.208;2023-07-29T05:07:21;98009.56;;;20.20;66.54
79481;BME280;68944;48.262;14.208;2023-07-29T05:09:47;98001.34;;;20.11;66.94
79481;BME280;68944;48.262;14.208;2023-07-29T05:12:13;97996.41;;;20.19;66.84
79481;BME280;68944;48.262;14.208;2023-07-29T05:14:38;98002.28;;;20.21;66.44
79481;BME280;68944;48.262;14.208;2023-07-29T05:17:04;97998.00;;;20.20;67.11
79481;BME280;68944;48.262;14.208;2023-07-29T05:19:29;98001.69;;;20.24;67.02
79481;BME280;68944;48.262;14.208;2023-07-29T05:21:56;98002.84;;;20.18;67.61
79481;BME280;68944;48.262;14.208;2023-07-29T05:24:22;98001.66;;;20.10;68.09
79481;BME280;68944;48.262;14.208;2023-07-29T05:26:48;98004.03;;;20.11;68.19
79481;BME280;68944;48.262;14.208;2023-07-29T05:29:13;97997.72;;;20.21;68.04
79481;BME280;68944;48.262;14.208;2023-07-29T05:31:39;97990.28;;;20.32;67.91
79481;BME280;68944;48.262;14.208;2023-07-29T05:34:05;97981.34;;;20.37;67.54
79481;BME280;68944;48.262;14.208;2023-07-29T05:36:31;97984.69;;;20.29;67.83
79481;BME280;68944;48.262;14.208;2023-07-29T05:38:57;97987.03;;;20.35;67.69
79481;BME280;68944;48.262;14.208;2023-07-29T05:41:22;97997.19;;;20.39;67.77
79481;BME280;68944;48.262;14.208;2023-07-29T05:43:48;97999.56;;;20.40;67.81
79481;BME280;68944;48.262;14.208;2023-07-29T05:46:14;98000.28;;;20.46;67.86
79481;BME280;68944;48.262;14.208;2023-07-29T05:48:40;97996.94;;;20.54;67.68
79481;BME280;68944;48.262;14.208;2023-07-29T05:51:05;98008.72;;;20.58;67.74
79481;BME280;68944;48.262;14.208;2023-07-29T05:53:31;98007.84;;;20.77;67.47
79481;BME280;68944;48.262;14.208;2023-07-29T05:55:56;98006.38;;;20.85;67.26
79481;BME280;68944;48.262;14.208;2023-07-29T05:58:22;98008.78;;;20.87;66.76
79481;BME280;68944;48.262;14.208;2023-07-29T06:00:48;97988.25;;;20.91;66.91
79481;BME280;68944;48.262;14.208;2023-07-29T06:03:13;97993.47;;;21.01;66.31
79481;BME280;68944;48.262;14.208;2023-07-29T06:05:39;97997.19;;;21.06;65.85
79481;BME280;68944;48.262;14.208;2023-07-29T06:08:04;97987.72;;;21.08;65.82
79481;BME280;68944;48.262;14.208;2023-07-29T06:10:30;98001.28;;;21.17;65.75
79481;BME280;68944;48.262;14.208;2023-07-29T06:12:56;97987.00;;;21.02;66.53
79481;BME280;68944;48.262;14.208;2023-07-29T06:15:21;98002.00;;;21.23;65.57
79481;BME280;68944;48.262;14.208;2023-07-29T06:17:48;97992.13;;;21.18;65.08
79481;BME280;68944;48.262;14.208;2023-07-29T06:20:14;97986.63;;;21.23;64.86
79481;BME280;68944;48.262;14.208;2023-07-29T06:22:40;97983.31;;;21.41;64.88
79481;BME280;68944;48.262;14.208;2023-07-29T06:25:06;97973.94;;;21.52;64.57
79481;BME280;68944;48.262;14.208;2023-07-29T06:27:32;97971.03;;;21.63;63.98
79481;BME280;68944;48.262;14.208;2023-07-29T06:29:57;97964.25;;;21.65;63.87
79481;BME280;68944;48.262;14.208;2023-07-29T06:32:23;97966.63;;;21.67;63.15
79481;BME280;68944;48.262;14.208;2023-07-29T06:34:48;97954.53;;;21.78;63.17
79481;BME280;68944;48.262;14.208;2023-07-29T06:37:14;97962.50;;;21.83;63.40
79481;BME280;68944;48.262;14.208;2023-07-29T06:39:39;97971.69;;;21.97;63.22
79481;BME280;68944;48.262;14.208;2023-07-29T06:42:05;97979.41;;;21.89;62.47
79481;BME280;68944;48.262;14.208;2023-07-29T06:44:30;97975.47;;;21.96;62.16
79481;BME280;68944;48.262;14.208;2023-07-29T06:46:57;97970.09;;;21.96;62.58
79481;BME280;68944;48.262;14.208;2023-07-29T06:49:23;97969.31;;;21.95;62.29
79481;BME280;68944;48.262;14.208;2023-07-29T06:51:48;97977.84;;;22.11;62.31
79481;BME280;68944;48.262;14.208;2023-07-29T06:54:16;97977.88;;;21.97;61.38
79481;BME280;68944;48.262;14.208;2023-07-29T06:56:41;97973.06;;;22.08;62.18
79481;BME280;68944;48.262;14.208;2023-07-29T06:59:07;97974.41;;;22.20;62.73
79481;BME280;68944;48.262;14.208;2023-07-29T07:01:33;97970.47;;;22.03;60.54
79481;BME280;68944;48.262;14.208;2023-07-29T07:03:59;97962.56;;;22.07;61.06
79481;BME280;68944;48.262;14.208;2023-07-29T07:06:24;97963.63;;;22.20;61.08
79481;BME280;68944;48.262;14.208;2023-07-29T07:08:51;97963.38;;;22.30;60.83
79481;BME280;68944;48.262;14.208;2023-07-29T07:11:17;97966.94;;;22.39;60.83
79481;BME280;68944;48.262;14.208;2023-07-29T07:13:43;97972.50;;;22.43;60.84
79481;BME280;68944;48.262;14.208;2023-07-29T07:16:08;97970.78;;;22.47;61.00
79481;BME280;68944;48.262;14.208;2023-07-29T07:18:34;97968.81;;;22.62;60.99
79481;BME280;68944;48.262;14.208;2023-07-29T07:20:59;97958.34;;;22.60;60.43
79481;BME280;68944;48.262;14.208;2023-07-29T07:23:25;97957.09;;;22.67;60.74
79481;BME280;68944;48.262;14.208;2023-07-29T07:25:50;97955.41;;;22.71;60.26
79481;BME280;68944;48.262;14.208;2023-07-29T07:28:16;97962.69;;;22.70;60.30
79481;BME280;68944;48.262;14.208;2023-07-29T07:30:42;97963.53;;;22.80;60.30
79481;BME280;68944;48.262;14.208;2023-07-29T07:33:07;97947.13;;;22.99;59.83
79481;BME280;68944;48.262;14.208;2023-07-29T07:35:33;97941.28;;;23.15;59.90
79481;BME280;68944;48.262;14.208;2023-07-29T07:37:58;97946.59;;;23.38;59.68
79481;BME280;68944;48.262;14.208;2023-07-29T07:40:27;97939.00;;;23.49;58.83
79481;BME280;68944;48.262;14.208;2023-07-29T07:42:52;97937.91;;;23.59;58.72
79481;BME280;68944;48.262;14.208;2023-07-29T07:45:18;97947.16;;;23.75;58.52
79481;BME280;68944;48.262;14.208;2023-07-29T07:47:43;97944.59;;;23.70;56.76
79481;BME280;68944;48.262;14.208;2023-07-29T07:50:09;97939.06;;;23.75;56.95
79481;BME280;68944;48.262;14.208;2023-07-29T07:52:35;97937.31;;;23.80;57.03
79481;BME280;68944;48.262;14.208;2023-07-29T07:55:00;97929.69;;;24.00;57.34
79481;BME280;68944;48.262;14.208;2023-07-29T07:57:26;97926.00;;;24.13;56.88
79481;BME280;68944;48.262;14.208;2023-07-29T07:59:51;97932.34;;;24.35;56.74
79481;BME280;68944;48.262;14.208;2023-07-29T08:02:18;97926.78;;;24.40;56.11
79481;BME280;68944;48.262;14.208;2023-07-29T08:04:43;97920.38;;;24.54;55.31
79481;BME280;68944;48.262;14.208;2023-07-29T08:07:09;97921.63;;;24.65;55.35
79481;BME280;68944;48.262;14.208;2023-07-29T08:09:34;97927.50;;;24.68;55.02
79481;BME280;68944;48.262;14.208;2023-07-29T08:12:00;97928.34;;;24.59;54.64
79481;BME280;68944;48.262;14.208;2023-07-29T08:14:25;97931.19;;;24.54;54.80
79481;BME280;68944;48.262;14.208;2023-07-29T08:16:51;97927.84;;;24.57;54.68
79481;BME280;68944;48.262;14.208;2023-07-29T08:19:17;97921.66;;;24.48;54.71
79481;BME280;68944;48.262;14.208;2023-07-29T08:21:42;97927.75;;;24.36;54.07
79481;BME280;68944;48.262;14.208;2023-07-29T08:24:08;97929.50;;;24.31;54.59
79481;BME280;68944;48.262;14.208;2023-07-29T08:26:33;97930.94;;;24.29;55.02
79481;BME280;68944;48.262;14.208;2023-07-29T08:28:59;97927.75;;;24.27;54.93
79481;BME280;68944;48.262;14.208;2023-07-29T08:31:24;97921.69;;;24.30;55.55
79481;BME280;68944;48.262;14.208;2023-07-29T08:33:50;97921.38;;;24.40;55.16
79481;BME280;68944;48.262;14.208;2023-07-29T08:36:15;97931.25;;;24.36;55.52
79481;BME280;68944;48.262;14.208;2023-07-29T08:38:41;97923.94;;;24.28;55.37
79481;BME280;68944;48.262;14.208;2023-07-29T08:41:24;97917.09;;;24.30;55.56
79481;BME280;68944;48.262;14.208;2023-07-29T08:44:12;97916.44;;;24.34;55.46
79481;BME280;68944;48.262;14.208;2023-07-29T08:46:42;97908.66;;;24.32;55.18
79481;BME280;68944;48.262;14.208;2023-07-29T08:49:09;97915.66;;;24.33;55.55
79481;BME280;68944;48.262;14.208;2023-07-29T08:51:36;97926.31;;;24.38;55.57
79481;BME280;68944;48.262;14.208;2023-07-29T08:54:02;97922.63;;;24.52;56.15
79481;BME280;68944;48.262;14.208;2023-07-29T08:56:27;97920.84;;;24.56;55.12
79481;BME280;68944;48.262;14.208;2023-07-29T08:58:55;97911.66;;;24.48;55.83
79481;BME280;68944;48.262;14.208;2023-07-29T09:01:21;97910.94;;;24.69;55.62
79481;BME280;68944;48.262;14.208;2023-07-29T09:03:47;97901.00;;;24.82;55.79
79481;BME280;68944;48.262;14.208;2023-07-29T09:06:13;97903.06;;;24.85;53.93
79481;BME280;68944;48.262;14.208;2023-07-29T09:08:40;97913.09;;;24.85;53.66
79481;BME280;68944;48.262;14.208;2023-07-29T09:11:06;97919.59;;;24.93;54.48
79481;BME280;68944;48.262;14.208;2023-07-29T09:13:31;97915.31;;;24.92;54.24
79481;BME280;68944;48.262;14.208;2023-07-29T09:15:57;97918.94;;;25.05;53.73
79481;BME280;68944;48.262;14.208;2023-07-29T09:18:25;97913.09;;;25.24;53.93
79481;BME280;68944;48.262;14.208;2023-07-29T09:20:52;97907.44;;;25.38;53.60
79481;BME280;68944;48.262;14.208;2023-07-29T09:23:18;97907.72;;;25.45;53.84
79481;BME280;68944;48.262;14.208;2023-07-29T09:25:46;97913.81;;;25.64;53.74
79481;BME280;68944;48.262;14.208;2023-07-29T09:28:16;97918.38;;;25.72;52.98
79481;BME280;68944;48.262;14.208;2023-07-29T09:30:44;97918.47;;;25.85;53.42
79481;BME280;68944;48.262;14.208;2023-07-29T09:33:10;97922.63;;;25.82;53.11
79481;BME280;68944;48.262;14.208;2023-07-29T09:35:36;97931.22;;;25.84;52.49
79481;BME280;68944;48.262;14.208;2023-07-29T09:38:04;97932.88;;;25.98;52.82
79481;BME280;68944;48.262;14.208;2023-07-29T09:40:38;97944.91;;;26.09;52.07
79481;BME280;68944;48.262;14.208;2023-07-29T09:43:04;97948.22;;;26.15;52.41
79481;BME280;68944;48.262;14.208;2023-07-29T09:45:33;97941.84;;;26.11;52.21
79481;BME280;68944;48.262;14.208;2023-07-29T09:47:59;97966.88;;;26.17;52.07
79481;BME280;68944;48.262;14.208;2023-07-29T09:50:25;97961.56;;;26.20;52.03
79481;BME280;68944;48.262;14.208;2023-07-29T09:52:52;97971.03;;;26.14;52.04
79481;BME280;68944;48.262;14.208;2023-07-29T09:55:19;97968.16;;;25.98;52.28
79481;BME280;68944;48.262;14.208;2023-07-29T09:57:46;97972.44;;;25.77;52.30
79481;BME280;68944;48.262;14.208;2023-07-29T10:00:12;97978.81;;;25.51;52.67
79481;BME280;68944;48.262;14.208;2023-07-29T10:02:42;97974.28;;;25.34;54.45
79481;BME280;68944;48.262;14.208;2023-07-29T10:05:09;97988.53;;;25.22;57.23
79481;BME280;68944;48.262;14.208;2023-07-29T10:07:38;97981.91;;;24.93;55.83
79481;BME280;68944;48.262;14.208;2023-07-29T10:10:06;97987.50;;;24.87;57.68
79481;BME280;68944;48.262;14.208;2023-07-29T10:12:32;97982.72;;;24.84;58.96
79481;BME280;68944;48.262;14.208;2023-07-29T10:15:07;97985.59;;;24.88;59.66
79481;BME280;68944;48.262;14.208;2023-07-29T10:17:37;97979.34;;;25.05;59.66
79481;BME280;68944;48.262;14.208;2023-07-29T10:20:04;97973.59;;;24.98;59.01
79481;BME280;68944;48.262;14.208;2023-07-29T10:22:37;97986.50;;;25.10;60.39
79481;BME280;68944;48.262;14.208;2023-07-29T10:25:08;97984.38;;;25.16;60.27
79481;BME280;68944;48.262;14.208;2023-07-29T10:27:42;97986.50;;;25.10;60.00
79481;BME280;68944;48.262;14.208;2023-07-29T10:30:10;97980.63;;;25.08;60.13
79481;BME280;68944;48.262;14.208;2023-07-29T10:32:38;97975.31;;;25.11;59.98
79481;BME280;68944;48.262;14.208;2023-07-29T10:35:04;97975.75;;;25.22;59.61
79481;BME280;68944;48.262;14.208;2023-07-29T10:37:30;97968.88;;;25.25;59.23
79481;BME280;68944;48.262;14.208;2023-07-29T10:39:56;97961.22;;;25.27;59.47
79481;BME280;68944;48.262;14.208;2023-07-29T10:42:22;97967.31;;;25.24;59.36
79481;BME280;68944;48.262;14.208;2023-07-29T10:44:49;97969.94;;;25.03;58.58
79481;BME280;68944;48.262;14.208;2023-07-29T10:47:23;97959.47;;;24.83;58.93
79481;BME280;68944;48.262;14.208;2023-07-29T10:49:54;97959.66;;;24.78;59.67
79481;BME280;68944;48.262;14.208;2023-07-29T10:55:03;97958.66;;;25.00;59.79
79481;BME280;68944;48.262;14.208;2023-07-29T10:57:37;97958.97;;;24.90;59.04
79481;BME280;68944;48.262;14.208;2023-07-29T11:00:04;97955.50;;;24.81;59.58
79481;BME280;68944;48.262;14.208;2023-07-29T11:02:35;97954.03;;;24.92;59.74
79481;BME280;68944;48.262;14.208;2023-07-29T11:05:15;97951.00;;;24.94;59.03
79481;BME280;68944;48.262;14.208;2023-07-29T11:07:48;97942.53;;;25.04;59.23
79481;BME280;68944;48.262;14.208;2023-07-29T11:10:14;97943.66;;;25.03;58.45
79481;BME280;68944;48.262;14.208;2023-07-29T11:17:37;97950.81;;;25.08;57.45
79481;BME280;68944;48.262;14.208;2023-07-29T11:20:04;97952.53;;;25.13;57.87
79481;BME280;68944;48.262;14.208;2023-07-29T11:22:30;97936.28;;;25.43;58.27
79481;BME280;68944;48.262;14.208;2023-07-29T11:24:56;97936.28;;;25.64;56.47
79481;BME280;68944;48.262;14.208;2023-07-29T11:27:22;97930.63;;;25.78;55.60
79481;BME280;68944;48.262;14.208;2023-07-29T11:29:48;97935.38;;;25.82;54.96
79481;BME280;68944;48.262;14.208;2023-07-29T11:32:14;97922.00;;;25.98;54.52
79481;BME280;68944;48.262;14.208;2023-07-29T11:34:41;97917.41;;;26.11;54.96
79481;BME280;68944;48.262;14.208;2023-07-29T11:37:09;97918.13;;;26.20;54.33
79481;BME280;68944;48.262;14.208;2023-07-29T11:39:40;97920.53;;;26.22;53.87
79481;BME280;68944;48.262;14.208;2023-07-29T11:42:07;97923.66;;;26.45;53.91
79481;BME280;68944;48.262;14.208;2023-07-29T11:44:32;97923.13;;;26.52;52.71
79481;BME280;68944;48.262;14.208;2023-07-29T11:46:58;97921.91;;;26.75;53.47
79481;BME280;68944;48.262;14.208;2023-07-29T11:49:23;97925.09;;;27.02;52.31
79481;BME280;68944;48.262;14.208;2023-07-29T11:51:48;97918.31;;;27.21;52.25
79481;BME280;68944;48.262;14.208;2023-07-29T11:54:15;97927.59;;;27.32;51.60
79481;BME280;68944;48.262;14.208;2023-07-29T11:56:40;97912.88;;;27.33;51.51
79481;BME280;68944;48.262;14.208;2023-07-29T11:59:06;97920.81;;;27.26;50.58
79481;BME280;68944;48.262;14.208;2023-07-29T12:01:32;97923.06;;;27.24;48.72
79481;BME280;68944;48.262;14.208;2023-07-29T12:03:58;97915.78;;;27.41;50.48
79481;BME280;68944;48.262;14.208;2023-07-29T12:06:24;97913.63;;;27.46;49.43
79481;BME280;68944;48.262;14.208;2023-07-29T12:08:50;97908.72;;;27.65;49.05
79481;BME280;68944;48.262;14.208;2023-07-29T12:11:16;97905.31;;;27.68;47.32
79481;BME280;68944;48.262;14.208;2023-07-29T12:13:43;97916.16;;;27.80;47.82
79481;BME280;68944;48.262;14.208;2023-07-29T12:16:09;97893.03;;;27.74;48.23
79481;BME280;68944;48.262;14.208;2023-07-29T12:18:35;97885.19;;;27.85;48.34
79481;BME280;68944;48.262;14.208;2023-07-29T12:21:02;97880.94;;;28.00;46.66
79481;BME280;68944;48.262;14.208;2023-07-29T12:23:28;97877.38;;;28.12;46.89
79481;BME280;68944;48.262;14.208;2023-07-29T12:25:58;97887.88;;;27.98;45.07
79481;BME280;68944;48.262;14.208;2023-07-29T12:28:24;97881.00;;;27.88;45.10
79481;BME280;68944;48.262;14.208;2023-07-29T12:30:53;97879.59;;;27.94;46.05
79481;BME280;68944;48.262;14.208;2023-07-29T12:33:35;97863.75;;;28.12;45.11
79481;BME280;68944;48.262;14.208;2023-07-29T12:36:02;97865.75;;;28.60;45.72
79481;BME280;68944;48.262;14.208;2023-07-29T12:38:31;97850.34;;;28.68;43.65
79481;BME280;68944;48.262;14.208;2023-07-29T12:40:56;97833.84;;;28.61;44.31
79481;BME280;68944;48.262;14.208;2023-07-29T12:43:22;97834.44;;;28.70;44.32
79481;BME280;68944;48.262;14.208;2023-07-29T12:45:51;97845.94;;;28.63;44.44
79481;BME280;68944;48.262;14.208;2023-07-29T12:48:16;97841.50;;;28.55;44.14
79481;BME280;68944;48.262;14.208;2023-07-29T12:50:42;97840.88;;;28.62;43.60
79481;BME280;68944;48.262;14.208;2023-07-29T12:53:08;97830.09;;;28.49;43.52
79481;BME280;68944;48.262;14.208;2023-07-29T12:55:37;97831.81;;;28.42;43.80
79481;BME280;68944;48.262;14.208;2023-07-29T12:58:03;97839.34;;;28.16;43.75
79481;BME280;68944;48.262;14.208;2023-07-29T13:00:29;97847.75;;;28.11;44.03
79481;BME280;68944;48.262;14.208;2023-07-29T13:02:54;97844.13;;;27.90;44.52
79481;BME280;68944;48.262;14.208;2023-07-29T13:05:20;97848.09;;;27.93;45.30